createdAt,value
2019-03-26T00:01:04.027Z,75368.11
2019-03-26T00:03:44.895Z,75371.09
2019-03-26T00:06:25.858Z,75370.09
2019-03-26T00:09:07.452Z,75371.09
2019-03-26T00:11:48.731Z,75370.09
2019-03-26T00:14:29.788Z,75369.09
2019-03-26T00:17:10.378Z,75368.11
2019-03-26T00:19:51.476Z,75365.13
2019-03-26T00:22:32.739Z,75366.12
2019-03-26T00:25:14.176Z,75364.13
2019-03-26T00:27:55.448Z,75362.14
2019-03-26T00:30:36.741Z,75354.20
2019-03-26T00:33:17.715Z,75351.22
2019-03-26T00:35:58.652Z,75340.28
2019-03-26T00:38:39.580Z,75337.30
2019-03-26T00:41:21.268Z,75339.30
2019-03-26T00:44:02.500Z,75344.27
2019-03-26T00:46:43.775Z,75348.23
2019-03-26T00:49:24.256Z,75347.24
2019-03-26T00:52:05.379Z,75342.27
2019-03-26T00:54:46.006Z,75337.30
2019-03-26T00:57:26.898Z,75361.15
2019-03-26T01:00:07.428Z,75359.16
2019-03-26T01:02:48.665Z,75358.17
2019-03-26T01:05:29.875Z,75350.22
2019-03-26T01:08:11.213Z,75355.19
2019-03-26T01:10:52.595Z,75344.27
2019-03-26T01:13:33.375Z,75349.23
2019-03-26T01:16:14.332Z,75341.28
2019-03-26T01:18:55.606Z,75341.28
2019-03-26T01:21:36.583Z,75338.30
2019-03-26T01:24:17.527Z,75329.36
2019-03-26T01:26:58.489Z,75324.39
2019-03-26T01:29:39.448Z,75307.50
2019-03-26T01:32:20.459Z,75295.58
2019-03-26T01:35:01.448Z,75283.66
2019-03-26T01:37:42.975Z,75281.67
2019-03-26T01:40:24.054Z,75268.76
2019-03-26T01:43:05.851Z,75266.77
2019-03-26T01:45:46.811Z,75255.84
2019-03-26T01:48:27.452Z,75249.88
2019-03-26T01:51:08.429Z,75241.94
2019-03-26T01:53:49.609Z,75236.97
2019-03-26T01:56:29.888Z,75226.04
2019-03-26T01:59:10.966Z,75218.09
2019-03-26T02:01:52.257Z,75199.22
2019-03-26T02:04:32.669Z,75200.21
2019-03-26T02:07:13.254Z,75193.25
2019-03-26T02:09:54.279Z,75189.28
2019-03-26T02:12:35.528Z,75180.34
2019-03-26T02:15:16.740Z,75181.34
2019-03-26T02:17:57.701Z,75171.40
2019-03-26T02:20:39.306Z,75161.47
2019-03-26T02:23:20.482Z,75159.48
2019-03-26T02:26:01.873Z,75157.49
2019-03-26T02:28:43.474Z,75147.56
2019-03-26T02:31:24.435Z,75148.55
2019-03-26T02:34:05.066Z,75134.64
2019-03-26T02:36:46.106Z,75129.67
2019-03-26T02:39:27.326Z,75128.69
2019-03-26T02:42:08.906Z,75098.88
2019-03-26T02:44:49.797Z,75065.11
2019-03-26T02:47:30.458Z,75046.23
2019-03-26T02:50:11.466Z,75016.43
2019-03-26T02:52:52.256Z,74975.70
2019-03-26T02:55:33.366Z,74949.88
2019-03-26T02:58:14.680Z,74914.11
2019-03-26T03:00:55.611Z,74877.36
2019-03-26T03:03:37.219Z,74874.38
2019-03-26T03:06:17.871Z,74856.50
2019-03-26T03:08:58.607Z,74852.52
2019-03-26T03:11:39.782Z,74865.44
2019-03-26T03:14:20.422Z,74829.67
2019-03-26T03:17:01.390Z,74794.91
2019-03-26T03:19:42.362Z,74773.06
2019-03-26T03:22:23.260Z,74730.34
2019-03-26T03:25:03.748Z,74700.55
2019-03-26T03:27:44.309Z,74719.42
2019-03-26T03:30:25.867Z,74706.50
2019-03-26T03:33:07.482Z,74671.73
2019-03-26T03:35:52.561Z,74678.69
2019-03-26T03:38:29.385Z,74672.73
2019-03-26T03:41:13.655Z,74723.39
2019-03-26T03:43:55.578Z,74678.69
2019-03-26T03:46:36.757Z,74633.99
2019-03-26T03:49:17.787Z,74570.42
2019-03-26T03:52:01.103Z,74575.39
2019-03-26T03:54:44.017Z,74585.33
2019-03-26T03:57:26.336Z,74624.06
2019-03-26T04:00:07.175Z,74582.34
2019-03-26T04:02:48.602Z,74549.56
2019-03-26T04:05:29.615Z,74550.56
2019-03-26T04:08:11.489Z,74522.75
2019-03-26T04:10:52.013Z,74499.91
2019-03-26T04:13:33.743Z,74486.98
2019-03-26T04:16:14.640Z,74516.79
2019-03-26T04:18:55.987Z,74546.59
2019-03-26T04:21:36.817Z,74585.33
2019-03-26T04:24:17.867Z,74529.70
2019-03-26T04:26:59.096Z,74505.86
2019-03-26T04:29:39.780Z,74520.77
2019-03-26T04:32:20.551Z,74509.84
2019-03-26T04:35:01.716Z,74493.94
2019-03-26T04:37:42.990Z,74493.94
2019-03-26T04:40:24.270Z,74489.97
2019-03-26T04:43:05.513Z,74473.09
2019-03-26T04:45:46.597Z,74486.00
2019-03-26T04:48:27.568Z,74457.19
2019-03-26T04:51:08.116Z,74425.41
2019-03-26T04:53:49.373Z,74451.23
2019-03-26T04:56:30.442Z,74474.08
2019-03-26T04:59:11.245Z,74454.21
2019-03-26T05:01:52.043Z,74433.36
2019-03-26T05:04:32.898Z,74438.32
2019-03-26T05:07:13.541Z,74393.63
2019-03-26T05:09:54.597Z,74388.66
2019-03-26T05:12:35.518Z,74360.84
2019-03-26T05:15:16.743Z,74359.86
2019-03-26T05:17:58.126Z,74392.63
2019-03-26T05:20:39.058Z,74389.66
2019-03-26T05:23:19.938Z,74352.91
2019-03-26T05:26:00.938Z,74331.05
2019-03-26T05:28:42.090Z,74342.97
2019-03-26T05:31:24.055Z,74340.98
2019-03-26T05:34:04.766Z,74310.20
2019-03-26T05:36:51.286Z,74297.28
2019-03-26T05:39:27.243Z,74326.09
2019-03-26T05:42:08.991Z,74293.31
2019-03-26T05:44:50.009Z,74296.29
2019-03-26T05:47:31.374Z,74277.42
2019-03-26T05:50:12.513Z,74315.16
2019-03-26T05:52:53.769Z,74289.34
2019-03-26T05:55:35.113Z,74262.52
2019-03-26T05:58:15.703Z,74263.52
2019-03-26T06:00:56.766Z,74257.55
2019-03-26T06:03:37.362Z,74231.73
2019-03-26T06:06:19.224Z,74248.62
2019-03-26T06:08:59.869Z,74230.73
2019-03-26T06:11:40.488Z,74252.59
2019-03-26T06:14:21.504Z,74230.73
2019-03-26T06:17:02.019Z,74211.87
2019-03-26T06:19:43.078Z,74224.78
2019-03-26T08:17:33.504Z,73955.63
2019-03-26T08:20:14.666Z,73954.64
2019-03-26T08:22:55.941Z,73940.73
2019-03-26T08:25:36.892Z,73934.78
2019-03-26T08:28:17.937Z,73941.73
2019-03-26T08:30:58.780Z,73912.93
2019-03-26T08:33:39.761Z,73902.01
2019-03-26T08:36:20.445Z,73919.88
2019-03-26T08:39:01.063Z,73922.86
2019-03-26T08:41:42.426Z,73912.93
2019-03-26T08:44:23.066Z,73902.01
2019-03-26T08:47:04.033Z,73910.94
2019-03-26T08:49:45.286Z,73927.83
2019-03-26T08:52:26.441Z,73929.81
2019-03-26T08:55:07.507Z,73934.78
2019-03-26T08:57:48.457Z,73918.89
2019-03-26T09:00:31.901Z,73913.92
2019-03-26T09:03:10.938Z,73902.01
2019-03-26T09:05:51.645Z,73914.91
2019-03-26T09:08:32.468Z,73927.83
2019-03-26T09:11:13.868Z,73939.74
2019-03-26T09:13:55.173Z,73969.54
2019-03-26T09:16:36.109Z,73980.46
2019-03-26T09:19:17.157Z,73972.52
2019-03-26T09:21:58.842Z,73967.55
2019-03-26T09:24:39.929Z,73974.50
2019-03-26T09:27:20.857Z,73996.35
2019-03-26T09:30:01.454Z,73994.37
2019-03-26T09:32:42.499Z,73993.38
2019-03-26T09:35:23.336Z,73996.35
2019-03-26T11:45:41.256Z,74595.25
2019-03-26T11:48:27.513Z,74609.16
2019-03-26T11:51:09.581Z,74632.01
2019-03-26T11:53:51.492Z,74660.81
2019-03-26T11:56:33.731Z,74654.85
2019-03-26T11:59:15.943Z,74680.68
2019-03-26T12:02:00.025Z,74670.75
2019-03-26T12:04:44.700Z,74675.71
2019-03-26T12:07:26.868Z,74689.63
2019-03-26T12:13:02.142Z,74701.54
2019-03-26T12:15:45.349Z,74711.47
2019-03-26T12:18:26.969Z,74725.38
2019-03-26T12:21:10.425Z,74722.40
2019-03-26T12:23:51.726Z,74741.27
2019-03-26T12:26:33.657Z,74751.20
2019-03-26T12:29:14.944Z,74748.22
2019-03-26T12:31:56.498Z,74760.14
2019-03-26T12:34:39.116Z,74775.05
2019-03-26T12:37:20.872Z,74781.00
2019-03-26T12:40:02.326Z,74781.00
2019-03-26T12:42:43.990Z,74780.01
2019-03-26T12:45:25.943Z,74778.02
2019-03-26T12:48:07.786Z,74785.97
2019-03-26T12:50:49.416Z,74797.89
2019-03-26T12:53:31.064Z,74812.79
2019-03-26T12:56:12.207Z,74812.79
2019-03-26T12:58:53.081Z,74817.76
2019-03-26T13:01:33.826Z,74818.75
2019-03-26T13:04:16.856Z,74827.69
2019-03-26T13:06:56.838Z,74850.53
2019-03-26T13:09:37.719Z,74858.48
2019-03-26T13:12:18.427Z,74861.47
2019-03-26T13:14:59.545Z,74863.45
2019-03-26T13:17:39.949Z,74878.35
2019-03-26T13:20:21.478Z,74879.34
2019-03-26T13:23:02.149Z,74884.31
2019-03-26T13:25:43.104Z,74896.23
2019-03-26T13:28:23.954Z,74886.30
2019-03-26T13:31:05.044Z,74875.38
2019-03-26T13:33:45.539Z,74891.27
2019-03-26T13:36:26.119Z,74888.28
2019-03-26T13:39:06.517Z,74905.17
2019-03-26T13:41:46.703Z,74898.22
2019-03-26T13:44:26.857Z,74909.14
2019-03-26T13:47:07.431Z,74907.16
2019-03-26T13:49:47.863Z,74904.18
2019-03-26T13:52:28.129Z,74911.13
2019-03-26T13:55:08.913Z,74926.03
2019-03-26T13:57:49.486Z,74956.83
2019-03-26T14:00:29.996Z,74972.72
2019-03-26T14:03:11.002Z,74976.69
2019-03-26T14:05:51.355Z,74970.73
2019-03-26T14:08:32.258Z,74975.70
2019-03-26T14:11:12.805Z,74982.66
2019-03-26T14:13:53.479Z,75004.51
2019-03-26T14:16:34.599Z,75003.52
2019-03-26T14:19:14.559Z,75024.38
2019-03-26T14:21:55.781Z,75026.36
2019-03-26T14:24:36.819Z,75041.27
2019-03-26T14:27:17.061Z,75066.09
2019-03-26T14:29:57.793Z,75099.88
2019-03-26T14:32:38.448Z,75095.91
2019-03-26T14:35:19.530Z,75077.02
2019-03-26T14:38:00.394Z,75078.02
2019-03-26T14:40:53.532Z,75088.95
2019-03-26T14:43:22.529Z,75070.08
2019-03-26T14:46:02.903Z,75075.04
2019-03-26T14:48:43.464Z,75081.00
2019-03-26T14:51:24.760Z,75100.87
2019-03-26T14:54:05.413Z,75109.81
2019-03-26T14:56:46.077Z,75109.81
2019-03-26T14:59:26.536Z,75125.70
2019-03-26T15:02:06.920Z,75133.66
2019-03-26T15:04:47.268Z,75146.56
2019-03-26T15:07:27.577Z,75149.55
2019-03-26T15:10:08.232Z,75157.49
2019-03-26T15:12:48.306Z,75165.44
2019-03-26T15:15:29.089Z,75159.48
2019-03-26T15:18:10.080Z,75145.57
2019-03-26T15:20:50.450Z,75139.61
2019-03-26T15:23:31.056Z,75154.52
2019-03-26T15:26:11.408Z,75173.39
2019-03-26T15:28:51.724Z,75171.40
2019-03-26T15:31:32.121Z,75154.52
2019-03-26T15:34:12.670Z,75170.41
2019-03-26T15:36:53.327Z,75201.20
2019-03-26T15:39:33.982Z,75215.11
2019-03-26T15:42:14.527Z,75223.06
2019-03-26T15:44:55.257Z,75210.14
2019-03-26T15:47:36.088Z,75193.25
2019-03-26T15:50:16.912Z,75197.23
2019-03-26T15:52:57.390Z,75205.17
2019-03-26T15:55:37.705Z,75214.12
2019-03-26T15:58:18.388Z,75223.06
2019-03-26T16:00:58.898Z,75208.16
2019-03-26T16:03:39.701Z,75226.04
2019-03-26T16:06:20.196Z,75220.08
2019-03-26T16:09:01.270Z,75229.02
2019-03-26T16:11:42.302Z,75262.80
2019-03-26T16:14:23.584Z,75272.73
2019-03-26T16:17:04.437Z,75273.72
2019-03-26T16:19:44.621Z,75279.69
2019-03-26T16:22:25.588Z,75276.70
2019-03-26T16:25:06.224Z,75277.70
2019-03-26T16:27:46.458Z,75288.63
2019-03-26T16:30:26.952Z,75294.59
2019-03-26T16:33:09.897Z,75310.48
2019-03-26T16:35:51.558Z,75306.51
2019-03-26T16:38:31.964Z,75302.53
2019-03-26T16:41:12.669Z,75298.56
2019-03-26T16:43:53.312Z,75288.63
2019-03-26T16:46:36.393Z,75313.46
2019-03-26T16:49:15.644Z,75315.45
2019-03-26T16:52:00.617Z,75305.52
2019-03-26T16:54:44.286Z,75273.72
2019-03-26T16:57:26.951Z,75286.64
2019-03-26T17:00:11.120Z,75315.45
2019-03-26T17:02:53.030Z,75344.27
2019-03-26T17:05:34.188Z,75356.18
2019-03-26T17:08:16.298Z,75354.20
2019-03-26T17:10:58.729Z,75350.22
2019-03-26T17:13:40.442Z,75340.28
2019-03-26T17:16:21.661Z,75338.30
2019-03-26T17:19:03.060Z,75371.09
2019-03-26T17:21:44.133Z,75384.99
2019-03-26T17:24:25.224Z,75371.09
2019-03-26T17:27:07.142Z,75344.27
2019-03-26T17:29:51.155Z,75397.91
2019-03-26T17:32:32.679Z,75371.09
2019-03-26T17:35:13.073Z,75374.06
2019-03-26T17:37:59.582Z,75393.94
2019-03-26T17:40:36.217Z,75394.92
2019-03-26T17:43:16.871Z,75387.97
2019-03-26T17:45:57.815Z,75422.74
2019-03-26T17:48:38.475Z,75445.59
2019-03-26T17:51:19.889Z,75424.73
2019-03-26T17:54:00.568Z,75426.72
2019-03-26T17:56:40.990Z,75426.72
2019-03-26T17:59:21.655Z,75426.72
2019-03-26T18:02:02.273Z,75424.73
2019-03-26T18:04:43.321Z,75423.73
2019-03-26T18:07:23.982Z,75420.76
2019-03-26T18:10:04.067Z,75451.55
2019-03-26T18:12:46.677Z,75465.47
2019-03-26T18:15:26.116Z,75485.33
2019-03-26T18:18:07.081Z,75499.25
2019-03-26T18:20:48.128Z,75498.25
2019-03-26T18:23:31.312Z,75484.34
2019-03-26T18:26:13.173Z,75472.42
2019-03-26T18:28:55.525Z,75479.38
2019-03-26T18:31:35.470Z,75502.22
2019-03-26T18:34:16.136Z,75527.06
2019-03-26T18:36:56.642Z,75535.02
2019-03-26T18:39:37.969Z,75530.05
2019-03-26T18:42:18.235Z,75494.28
2019-03-26T18:44:59.179Z,75489.31
2019-03-26T18:47:41.069Z,75468.45
2019-03-26T18:50:22.315Z,75473.41
2019-03-26T18:53:02.781Z,75498.25
2019-03-26T18:55:43.887Z,75510.17
2019-03-26T18:58:24.823Z,75501.23
2019-03-26T19:01:05.598Z,75500.23
2019-03-26T19:03:46.567Z,75501.23
2019-03-26T19:06:27.799Z,75493.28
2019-03-26T19:09:08.781Z,75513.16
2019-03-26T19:11:49.725Z,75523.09
2019-03-26T19:14:30.353Z,75526.06
2019-03-26T19:17:10.901Z,75533.02
2019-03-26T19:19:51.220Z,75552.89
2019-03-26T19:22:32.216Z,75555.88
2019-03-26T19:25:12.866Z,75550.91
2019-03-26T19:27:54.005Z,75543.95
2019-03-26T19:30:35.282Z,75529.05
2019-03-26T19:33:16.209Z,75532.03
2019-03-26T19:35:57.344Z,75544.95
2019-03-26T19:38:37.881Z,75552.89
2019-03-26T19:41:18.319Z,75551.90
2019-03-26T19:43:59.339Z,75535.02
2019-03-26T19:46:39.907Z,75520.11
2019-03-26T19:49:20.544Z,75521.10
2019-03-26T19:52:00.681Z,75518.13
2019-03-26T19:54:41.047Z,75520.11
2019-03-26T19:57:21.200Z,75513.16
2019-03-26T20:00:01.432Z,75513.16
2019-03-26T20:02:41.973Z,75511.16
2019-03-26T20:05:23.123Z,75520.11
2019-03-26T20:08:03.684Z,75507.19
2019-03-26T20:10:44.050Z,75493.28
2019-03-26T20:13:25.046Z,75493.28
2019-03-26T20:16:05.975Z,75508.19
2019-03-26T20:18:47.257Z,75516.13
2019-03-26T20:21:27.915Z,75528.05
2019-03-26T20:24:08.099Z,75543.95
2019-03-26T20:26:48.300Z,75545.94
2019-03-26T20:29:28.940Z,75550.91
2019-03-26T20:32:09.583Z,75555.88
2019-03-26T20:34:49.773Z,75542.96
2019-03-26T20:37:30.549Z,75522.09
2019-03-26T20:40:11.747Z,75499.25
2019-03-26T20:42:52.778Z,75475.40
2019-03-26T20:45:33.656Z,75496.27
2019-03-26T20:48:14.347Z,75526.06
2019-03-26T20:50:57.014Z,75558.86
2019-03-26T20:53:37.168Z,75570.78
2019-03-26T20:56:17.818Z,75569.78
2019-03-26T20:58:58.782Z,75559.84
2019-03-26T21:01:39.247Z,75552.89
2019-03-26T21:04:20.049Z,75550.91
2019-03-26T21:07:01.147Z,75565.81
2019-03-26T21:09:42.734Z,75570.78
2019-03-26T21:12:23.575Z,75545.94
2019-03-26T21:15:04.546Z,75545.94
2019-03-26T21:17:45.336Z,75541.97
2019-03-26T21:20:25.830Z,75569.78
2019-03-26T21:23:06.773Z,75598.59
2019-03-26T21:25:48.059Z,75621.45
2019-03-26T21:28:29.438Z,75625.42
2019-03-26T21:31:10.934Z,75634.36
2019-03-26T21:33:50.958Z,75620.45
2019-03-26T21:36:31.108Z,75632.38
2019-03-26T21:39:11.576Z,75641.31
2019-03-26T21:41:52.048Z,75655.23
2019-03-26T21:44:32.858Z,75641.31
2019-03-26T21:47:13.162Z,75638.34
2019-03-26T21:49:54.145Z,75611.52
2019-03-26T21:52:34.454Z,75571.77
2019-03-26T21:55:14.899Z,75593.63
2019-03-26T21:57:55.210Z,75604.56
2019-03-26T22:00:35.989Z,75618.47
2019-03-26T22:03:16.144Z,75635.36
2019-03-26T22:05:56.489Z,75661.19
2019-03-26T22:08:37.130Z,75646.28
2019-03-26T22:11:18.202Z,75644.30
2019-03-26T22:13:58.929Z,75675.09
2019-03-26T22:16:39.567Z,75673.11
2019-03-26T22:19:28.615Z,75688.02
2019-03-26T22:22:02.077Z,75686.03
2019-03-26T22:24:42.769Z,75680.06
2019-03-26T22:27:23.729Z,75679.07
2019-03-26T22:30:04.696Z,75671.13
2019-03-26T22:32:45.972Z,75675.09
2019-03-26T22:35:27.579Z,75685.03
2019-03-26T22:38:09.368Z,75686.03
2019-03-26T22:40:50.770Z,75681.06
2019-03-26T22:43:32.058Z,75673.11
2019-03-26T22:46:12.689Z,75663.17
2019-03-26T22:48:54.296Z,75648.27
2019-03-26T22:51:35.097Z,75630.39
2019-03-26T22:54:15.485Z,75629.39
2019-03-26T22:56:56.854Z,75643.30
2019-03-26T22:59:37.503Z,75651.25
2019-03-26T23:02:18.459Z,75643.30
2019-03-26T23:04:58.697Z,75676.09
2019-03-26T23:07:39.089Z,75693.97
2019-03-26T23:10:19.283Z,75692.98
2019-03-26T23:12:59.224Z,75668.14
2019-03-26T23:15:39.753Z,75633.37
2019-03-26T23:18:19.917Z,75671.13
2019-03-26T23:21:00.451Z,75712.85
2019-03-26T23:23:41.660Z,75727.76
2019-03-26T23:26:22.260Z,75711.86
2019-03-26T23:29:02.536Z,75710.87
2019-03-26T23:31:42.560Z,75705.90
2019-03-26T23:34:22.978Z,75696.95
2019-03-26T23:37:03.512Z,75712.85
2019-03-26T23:39:43.911Z,75711.86
2019-03-26T23:42:24.524Z,75711.86
2019-03-26T23:45:05.842Z,75700.93
2019-03-26T23:47:46.471Z,75688.02
2019-03-26T23:50:26.710Z,75695.96
2019-03-26T23:53:07.639Z,75717.82
2019-03-26T23:55:49.036Z,75729.74
2019-03-26T23:58:29.982Z,75719.81
